Gardiner, New York
Current Conditions -  °F | °C
As of 12:45 AM on Thursday 29 Jan 2015 (Local Time) from KSWF Reporting Station
Clear Clear  
Wind Chill:   Ceiling: Unl
Heat Index:   Visibility: 10mi
Dew Point:   Wind: 0mph
Humidity: 79%   Direction: NA
Pressure: 30.29"   Gusts: NA
Location:  41.68°N, 74.15°W
Report Text: KSWF 290545Z 00000KT 10SM SKC M14/M17 A3029
Loading
Personal Weather Stations






























Interactive Weather Map New forecast layout! Learn more

10-Day Weather Forecast

Advertisements
Track Severe Weather on mobile